createdAt,value
2023-05-14T00:00:50.428Z,100649.31
2023-05-14T00:03:14.976Z,100642.87
2023-05-14T00:04:24.710Z,100654.64
2023-05-14T00:06:50.451Z,100649.58
2023-05-14T00:09:15.661Z,100654.45
2023-05-14T00:11:43.930Z,100652.46
2023-05-14T00:14:07.902Z,100659.17
2023-05-14T00:16:53.157Z,100659.56
2023-05-14T00:19:18.565Z,100655.84
2023-05-14T00:21:45.226Z,100659.29
2023-05-14T00:24:11.462Z,100658.72
2023-05-14T00:26:36.553Z,100659.87
2023-05-14T00:29:03.717Z,100664.89
2023-05-14T00:31:28.143Z,100665.89
2023-05-14T00:32:38.333Z,100669.49
2023-05-14T00:33:48.583Z,100673.94
2023-05-14T00:34:58.916Z,100674.09
2023-05-14T00:37:24.525Z,100669.19
2023-05-14T00:39:50.472Z,100666.08
2023-05-14T00:42:15.836Z,100664.50
2023-05-14T00:44:41.037Z,100663.50
2023-05-14T00:47:08.718Z,100657.75
2023-05-14T00:48:18.381Z,100656.06
2023-05-14T00:50:43.441Z,100651.73
2023-05-14T00:51:54.817Z,100652.36
2023-05-14T00:54:24.159Z,100650.34
2023-05-14T00:56:51.102Z,100645.34
2023-05-14T00:59:16.710Z,100642.92
2023-05-14T01:01:43.615Z,100639.05
2023-05-14T01:02:52.636Z,100644.11
2023-05-14T01:05:17.755Z,100647.08
2023-05-14T01:07:55.483Z,100654.12
2023-05-14T01:10:39.413Z,100649.27
2023-05-14T01:13:29.985Z,100654.43
2023-05-14T01:16:26.974Z,100648.40
2023-05-14T01:18:57.635Z,100651.70
2023-05-14T01:20:08.187Z,100652.27
2023-05-14T01:22:44.929Z,100649.25
2023-05-14T01:25:10.371Z,100650.38
2023-05-14T01:27:58.022Z,100646.80
2023-05-14T01:31:10.131Z,100649.25
2023-05-14T01:32:23.419Z,100655.41
2023-05-14T01:34:52.734Z,100655.00
2023-05-14T01:37:19.775Z,100659.16
2023-05-14T01:39:48.931Z,100658.86
2023-05-14T01:41:10.142Z,100657.00
2023-05-14T01:43:34.685Z,100657.28
2023-05-14T01:44:44.076Z,100657.99
2023-05-14T01:45:55.435Z,100669.59
2023-05-14T01:48:21.366Z,100653.91
2023-05-14T01:50:45.003Z,100651.00
2023-05-14T01:53:10.983Z,100651.39
2023-05-14T01:55:37.151Z,100661.81
2023-05-14T01:58:01.702Z,100654.70
2023-05-14T02:00:26.884Z,100642.42
2023-05-14T02:02:51.463Z,100640.20
2023-05-14T02:05:17.691Z,100631.07
2023-05-14T02:07:41.234Z,100634.60
2023-05-14T02:10:09.254Z,100637.56
2023-05-14T02:12:33.385Z,100631.83
2023-05-14T02:14:57.805Z,100634.23
2023-05-14T02:17:26.017Z,100632.67
2023-05-14T02:19:50.816Z,100631.55
2023-05-14T02:21:00.957Z,100630.22
2023-05-14T02:22:09.839Z,100634.98
2023-05-14T02:24:33.513Z,100636.08
2023-05-14T02:25:43.043Z,100639.19
2023-05-14T02:28:08.954Z,100637.78
2023-05-14T02:30:38.868Z,100632.05
2023-05-14T02:33:11.676Z,100635.46
2023-05-14T02:35:37.427Z,100635.20
2023-05-14T02:38:02.655Z,100633.36
2023-05-14T02:40:27.119Z,100634.14
2023-05-14T02:42:51.986Z,100624.91
2023-05-14T02:45:18.238Z,100626.25
2023-05-14T02:46:28.316Z,100626.16
2023-05-14T02:48:52.990Z,100635.44
2023-05-14T02:51:21.919Z,100629.67
2023-05-14T02:53:46.961Z,100638.13
2023-05-14T02:56:10.934Z,100632.59
2023-05-14T02:57:21.839Z,100643.30
2023-05-14T02:58:31.198Z,100643.14
2023-05-14T03:00:58.054Z,100635.72
2023-05-14T03:02:08.020Z,100636.36
2023-05-14T03:04:34.775Z,100626.83
2023-05-14T03:07:03.361Z,100627.41
2023-05-14T03:08:13.091Z,100640.67
2023-05-14T03:09:22.927Z,100635.77
2023-05-14T03:10:33.377Z,100640.37
2023-05-14T03:11:42.507Z,100633.27
2023-05-14T03:14:08.290Z,100639.36
2023-05-14T03:16:33.646Z,100634.50
2023-05-14T03:17:43.276Z,100638.58
2023-05-14T03:20:10.106Z,100636.03
2023-05-14T03:21:20.033Z,100642.67
2023-05-14T03:22:30.354Z,100637.59
2023-05-14T03:24:55.808Z,100631.06
2023-05-14T03:27:22.222Z,100632.30
2023-05-14T03:28:31.828Z,100634.87
2023-05-14T03:30:59.348Z,100626.98
2023-05-14T03:32:08.338Z,100629.23
2023-05-14T03:34:35.782Z,100633.12
2023-05-14T03:35:46.047Z,100624.38
2023-05-14T03:38:11.371Z,100620.72
2023-05-14T03:40:36.504Z,100618.72
2023-05-14T03:43:02.360Z,100619.69
2023-05-14T03:45:28.223Z,100620.36
2023-05-14T03:47:53.591Z,100622.22
2023-05-14T03:50:19.086Z,100616.08
2023-05-14T03:51:29.084Z,100625.19
2023-05-14T03:53:55.136Z,100620.45
2023-05-14T03:56:22.008Z,100623.01
2023-05-14T03:58:45.784Z,100624.69
2023-05-14T04:01:09.910Z,100627.09
2023-05-14T04:03:35.321Z,100617.20
2023-05-14T04:04:44.395Z,100622.70
2023-05-14T04:07:12.491Z,100613.80
2023-05-14T04:08:21.538Z,100626.89
2023-05-14T04:10:46.788Z,100620.15
2023-05-14T04:13:31.424Z,100625.36
2023-05-14T04:14:41.635Z,100630.50
2023-05-14T04:15:51.346Z,100626.97
2023-05-14T04:17:01.344Z,100630.02
2023-05-14T04:18:09.981Z,100627.95
2023-05-14T04:19:19.717Z,100627.07
2023-05-14T04:20:29.383Z,100628.20
2023-05-14T04:23:01.523Z,100625.47
2023-05-14T04:25:26.752Z,100629.00
2023-05-14T04:26:37.101Z,100623.19
2023-05-14T04:27:46.766Z,100622.15
2023-05-14T04:30:13.520Z,100630.30
2023-05-14T04:32:39.384Z,100623.58
2023-05-14T04:35:04.181Z,100621.76
2023-05-14T04:37:29.187Z,100625.47
2023-05-14T04:39:54.336Z,100619.28
2023-05-14T05:41:10.917Z,100627.27
2023-05-14T05:43:35.171Z,100627.22
2023-05-14T05:44:44.793Z,100630.62
2023-05-14T05:47:11.114Z,100629.48
2023-05-14T05:49:37.115Z,100624.61
2023-05-14T05:52:05.154Z,100630.92
2023-05-14T05:54:34.618Z,100626.66
2023-05-14T05:55:44.959Z,100626.34
2023-05-14T05:58:10.223Z,100626.52
2023-05-14T06:00:34.966Z,100627.00
2023-05-14T06:02:58.604Z,100630.02
2023-05-14T06:04:09.274Z,100634.37
2023-05-14T06:05:20.183Z,100629.01
2023-05-14T06:07:48.312Z,100624.91
2023-05-14T06:08:56.650Z,100634.52
2023-05-14T06:11:22.364Z,100630.19
2023-05-14T06:13:48.625Z,100630.48
2023-05-14T06:16:12.358Z,100623.98
2023-05-14T06:18:37.005Z,100630.27
2023-05-14T06:19:47.161Z,100630.80
2023-05-14T06:22:13.074Z,100621.85
2023-05-14T06:23:21.966Z,100626.47
2023-05-14T06:25:45.626Z,100617.31
2023-05-14T06:26:55.287Z,100621.75
2023-05-14T06:29:19.385Z,100619.81
2023-05-14T06:31:43.949Z,100606.72
2023-05-14T06:32:52.747Z,100622.41
2023-05-14T06:35:17.309Z,100618.45
2023-05-14T06:36:26.990Z,100618.39
2023-05-14T06:37:35.973Z,100615.20
2023-05-14T06:40:00.944Z,100616.79
2023-05-14T06:42:27.021Z,100615.92
2023-05-14T06:44:51.993Z,100612.73
2023-05-14T06:46:01.153Z,100621.84
2023-05-14T06:47:10.669Z,100618.66
2023-05-14T06:49:35.915Z,100611.89
2023-05-14T06:52:04.875Z,100617.60
2023-05-14T06:54:30.437Z,100617.37
2023-05-14T06:56:54.644Z,100605.92
2023-05-14T06:59:21.583Z,100619.98
2023-05-14T07:01:46.850Z,100616.17
2023-05-14T07:02:56.554Z,100621.25
2023-05-14T07:05:20.476Z,100613.45
2023-05-14T07:07:45.215Z,100608.62
2023-05-14T07:10:10.095Z,100615.20
2023-05-14T07:11:19.727Z,100622.42
2023-05-14T07:13:43.855Z,100618.49
2023-05-14T07:14:52.933Z,100613.61
2023-05-14T07:17:16.834Z,100619.59
2023-05-14T07:19:42.477Z,100608.95
2023-05-14T07:22:06.289Z,100617.23
2023-05-14T07:24:30.467Z,100611.70
2023-05-14T07:26:56.518Z,100613.41
2023-05-14T07:28:06.214Z,100614.23
2023-05-14T07:29:15.190Z,100605.11
2023-05-14T07:30:24.439Z,100612.34
2023-05-14T07:31:35.032Z,100613.84
2023-05-14T07:33:58.653Z,100598.16
2023-05-14T07:36:23.365Z,100605.16
2023-05-14T07:38:50.117Z,100601.09
2023-05-14T07:41:16.207Z,100603.66
2023-05-14T07:43:42.121Z,100600.98
2023-05-14T07:46:06.494Z,100601.38
2023-05-14T07:48:30.986Z,100594.29
2023-05-14T07:50:56.507Z,100601.03
2023-05-14T07:53:20.618Z,100599.34
2023-05-14T07:55:47.855Z,100601.61
2023-05-14T07:58:11.787Z,100601.81
2023-05-14T08:00:37.546Z,100598.17
2023-05-14T08:03:03.283Z,100599.02
2023-05-14T08:05:27.246Z,100604.47
2023-05-14T08:06:36.747Z,100598.45
2023-05-14T08:07:46.156Z,100593.15
2023-05-14T08:08:55.238Z,100596.78
2023-05-14T08:10:07.199Z,100592.36
2023-05-14T08:11:15.913Z,100595.33
2023-05-14T08:13:41.107Z,100590.22
2023-05-14T08:16:07.325Z,100582.48
2023-05-14T08:18:31.384Z,100590.05
2023-05-14T08:19:40.707Z,100599.45
2023-05-14T08:22:05.167Z,100591.77
2023-05-14T08:24:30.248Z,100590.72
2023-05-14T08:25:39.032Z,100596.42
2023-05-14T08:28:05.476Z,100575.29
2023-05-14T08:29:16.437Z,100578.44
2023-05-14T08:30:27.259Z,100577.24
2023-05-14T08:32:52.234Z,100576.25
2023-05-14T08:35:17.678Z,100575.04
2023-05-14T08:37:41.890Z,100568.15
2023-05-14T08:40:08.550Z,100570.38
2023-05-14T08:41:18.889Z,100576.33
2023-05-14T08:42:28.770Z,100571.30
2023-05-14T08:45:23.267Z,100562.91
2023-05-14T08:47:50.584Z,100560.73
2023-05-14T08:50:38.972Z,100564.72
2023-05-14T08:53:10.765Z,100555.22
2023-05-14T09:06:14.120Z,100558.34
2023-05-14T09:07:24.081Z,100558.22
2023-05-14T09:09:51.806Z,100548.02
2023-05-14T09:11:00.791Z,100550.69
2023-05-14T09:12:16.774Z,100548.53
2023-05-14T09:13:28.120Z,100546.81
2023-05-14T09:14:35.786Z,100546.29
2023-05-14T09:17:01.292Z,100537.12
2023-05-14T09:19:27.363Z,100536.09
2023-05-14T09:21:56.957Z,100535.61
2023-05-14T09:23:05.547Z,100542.47
2023-05-14T09:25:41.998Z,100535.05
2023-05-14T09:28:10.704Z,100534.33
2023-05-14T09:30:37.515Z,100528.63
2023-05-14T09:33:03.998Z,100530.70
2023-05-14T09:35:33.405Z,100533.42
2023-05-14T09:36:42.912Z,100523.77
2023-05-14T09:37:53.506Z,100526.92
2023-05-14T09:40:21.586Z,100521.94
2023-05-14T09:41:31.624Z,100525.20
2023-05-14T09:42:41.204Z,100528.59
2023-05-14T09:43:52.756Z,100527.95
2023-05-14T09:46:16.592Z,100517.55
2023-05-14T09:47:26.444Z,100528.03
2023-05-14T09:49:52.913Z,100523.55
2023-05-14T09:52:20.109Z,100516.62
2023-05-14T09:53:31.391Z,100521.95
2023-05-14T09:55:57.108Z,100516.88
2023-05-14T09:58:21.297Z,100512.69
2023-05-14T10:00:47.235Z,100515.33
2023-05-14T10:03:17.999Z,100507.39
2023-05-14T10:04:27.238Z,100510.22
2023-05-14T10:05:38.220Z,100508.70
2023-05-14T10:08:15.685Z,100506.71
2023-05-14T10:10:42.696Z,100501.58
2023-05-14T10:13:15.121Z,100502.08
2023-05-14T10:15:52.342Z,100510.58
2023-05-14T10:18:21.526Z,100503.40
2023-05-14T10:21:06.884Z,100498.73
2023-05-14T10:23:37.316Z,100495.98
2023-05-14T10:24:47.902Z,100496.98
2023-05-14T10:27:14.666Z,100500.05
2023-05-14T10:29:41.548Z,100496.58
2023-05-14T10:30:50.938Z,100503.39
2023-05-14T10:33:23.152Z,100502.22
2023-05-14T10:36:06.023Z,100502.53
2023-05-14T10:38:37.631Z,100501.29
2023-05-14T10:41:21.803Z,100495.97
2023-05-14T10:43:53.586Z,100481.13
2023-05-14T10:45:07.152Z,100493.15
2023-05-14T10:46:17.318Z,100495.15
2023-05-14T10:47:31.740Z,100497.33
2023-05-14T10:50:03.274Z,100488.33
2023-05-14T10:52:28.839Z,100485.28
2023-05-14T10:55:03.577Z,100487.61
2023-05-14T10:57:31.943Z,100489.25
2023-05-14T11:00:00.442Z,100482.91
2023-05-14T11:03:56.508Z,100486.67
2023-05-14T11:06:30.242Z,100489.70
2023-05-14T11:08:59.479Z,100485.70
2023-05-14T11:11:29.003Z,100480.91
2023-05-14T11:12:40.710Z,100478.48
2023-05-14T11:13:52.065Z,100479.16
2023-05-14T11:16:24.090Z,100467.00
2023-05-14T11:18:56.318Z,100463.41
2023-05-14T11:20:07.864Z,100469.66
2023-05-14T11:21:17.797Z,100470.91
2023-05-14T11:23:46.342Z,100466.09
2023-05-14T11:24:55.111Z,100467.69
2023-05-14T11:26:06.105Z,100476.98
2023-05-14T11:28:31.608Z,100469.45
2023-05-14T11:31:01.188Z,100458.66
2023-05-14T11:33:28.443Z,100466.77
2023-05-14T11:35:53.813Z,100471.61
2023-05-14T11:38:21.099Z,100477.95
2023-05-14T11:40:55.945Z,100481.44
2023-05-14T11:43:42.721Z,100470.64
2023-05-14T11:46:12.332Z,100464.53
2023-05-14T11:47:23.180Z,100469.33
2023-05-14T11:48:33.514Z,100474.19
2023-05-14T11:50:58.137Z,100466.50
2023-05-14T11:53:30.575Z,100465.67
2023-05-14T11:55:57.354Z,100466.30
2023-05-14T11:57:21.880Z,100467.44
2023-05-14T11:58:35.964Z,100463.81
2023-05-14T11:59:45.846Z,100464.41
2023-05-14T12:00:56.943Z,100465.92
2023-05-14T12:03:25.363Z,100469.91
2023-05-14T12:05:57.775Z,100466.96
2023-05-14T12:08:37.218Z,100471.64
2023-05-14T12:11:06.354Z,100467.17
2023-05-14T12:12:19.864Z,100465.57
2023-05-14T12:13:33.285Z,100466.52
2023-05-14T12:16:01.772Z,100470.59
2023-05-14T12:18:36.947Z,100457.63
2023-05-14T12:19:48.476Z,100462.64
2023-05-14T12:22:23.117Z,100455.55
2023-05-14T12:23:33.865Z,100470.03
2023-05-14T12:26:14.404Z,100447.63
2023-05-14T12:28:43.694Z,100445.41
2023-05-14T12:31:18.363Z,100446.37
2023-05-14T12:32:28.103Z,100449.88
2023-05-14T12:33:37.088Z,100449.48
2023-05-14T12:36:19.869Z,100451.75
2023-05-14T12:38:32.118Z,100444.61
2023-05-14T12:40:55.666Z,100431.41
2023-05-14T12:43:21.906Z,100432.78
2023-05-14T12:45:54.850Z,100440.36
2023-05-14T12:48:20.482Z,100437.81
2023-05-14T12:50:45.148Z,100430.88
2023-05-14T12:52:07.714Z,100429.77
2023-05-14T12:54:21.488Z,100426.27
2023-05-14T12:56:45.099Z,100424.66
2023-05-14T12:59:10.053Z,100428.31
2023-05-14T13:01:36.349Z,100419.05
2023-05-14T13:04:01.743Z,100422.73
2023-05-14T13:06:27.892Z,100417.66
2023-05-14T13:08:51.975Z,100417.24
2023-05-14T13:11:17.571Z,100417.04
2023-05-14T13:13:42.566Z,100415.80
2023-05-14T13:16:08.876Z,100410.08
2023-05-14T13:18:34.507Z,100403.53
2023-05-14T13:21:00.572Z,100410.75
2023-05-14T13:23:24.801Z,100411.36
2023-05-14T13:25:50.533Z,100405.13
2023-05-14T13:28:15.224Z,100407.89
2023-05-14T13:29:25.679Z,100401.69
2023-05-14T13:31:51.794Z,100407.30
2023-05-14T13:34:17.022Z,100409.39
2023-05-14T13:36:46.189Z,100411.52
2023-05-14T13:37:55.084Z,100411.19
2023-05-14T13:40:36.392Z,100413.34
2023-05-14T13:43:07.191Z,100411.80
2023-05-14T13:44:16.937Z,100413.80
2023-05-14T13:46:41.187Z,100414.23
2023-05-14T13:49:06.457Z,100415.67
2023-05-14T13:51:30.906Z,100413.33
2023-05-14T13:55:04.898Z,100415.09
2023-05-14T13:57:29.037Z,100415.61
2023-05-14T13:59:52.664Z,100411.81
2023-05-14T14:01:01.938Z,100413.19
2023-05-14T14:03:33.839Z,100411.61
2023-05-14T14:05:58.090Z,100408.23
2023-05-14T14:08:24.273Z,100409.47
2023-05-14T14:09:35.469Z,100411.52
2023-05-14T14:12:03.559Z,100399.30
2023-05-14T14:14:27.784Z,100406.31
2023-05-14T14:16:54.129Z,100401.92
2023-05-14T14:18:04.726Z,100405.88
2023-05-14T14:20:30.734Z,100397.28
2023-05-14T14:21:42.783Z,100402.25
2023-05-14T14:22:52.531Z,100405.00
2023-05-14T14:25:18.852Z,100401.52
2023-05-14T14:26:28.711Z,100403.13
2023-05-14T14:27:40.401Z,100399.50
2023-05-14T14:30:07.986Z,100392.56
2023-05-14T14:32:32.223Z,100391.05
2023-05-14T14:33:42.385Z,100396.42
2023-05-14T14:36:08.653Z,100394.41
2023-05-14T14:37:18.292Z,100400.20
2023-05-14T14:39:42.319Z,100391.66
2023-05-14T14:40:51.079Z,100390.25
2023-05-14T14:42:02.700Z,100399.17
2023-05-14T14:44:46.981Z,100387.19
2023-05-14T14:45:56.678Z,100391.95
2023-05-14T14:48:35.411Z,100388.91
2023-05-14T14:51:03.618Z,100389.51
2023-05-14T14:53:28.010Z,100387.80
2023-05-14T14:55:52.933Z,100388.44
2023-05-14T14:58:18.942Z,100388.44
2023-05-14T15:00:44.192Z,100386.55
2023-05-14T15:03:11.203Z,100381.25
2023-05-14T15:05:35.450Z,100386.39
2023-05-14T15:07:59.229Z,100382.33
2023-05-14T15:10:26.534Z,100383.20
2023-05-14T15:12:51.179Z,100382.80
2023-05-14T15:15:22.710Z,100375.31
2023-05-14T15:16:33.577Z,100383.05
2023-05-14T15:17:42.955Z,100383.05
2023-05-14T15:20:08.522Z,100377.55
2023-05-14T15:22:32.174Z,100381.78
2023-05-14T15:24:56.532Z,100374.24
2023-05-14T15:27:20.399Z,100370.28
2023-05-14T15:29:47.750Z,100370.97
2023-05-14T15:32:12.518Z,100366.90
2023-05-14T15:34:36.525Z,100368.22
2023-05-14T15:35:46.120Z,100367.83
2023-05-14T15:38:10.726Z,100362.17
2023-05-14T15:40:34.761Z,100365.95
2023-05-14T15:41:46.508Z,100374.92
2023-05-14T15:42:55.596Z,100371.15
2023-05-14T15:44:06.368Z,100366.95
2023-05-14T15:46:51.464Z,100364.06
2023-05-14T15:49:15.245Z,100362.64
2023-05-14T15:50:26.785Z,100367.39
2023-05-14T15:51:36.612Z,100363.41
2023-05-14T15:52:46.288Z,100369.55
2023-05-14T15:53:55.869Z,100360.09
2023-05-14T15:56:24.102Z,100359.89
2023-05-14T15:58:49.404Z,100353.66
2023-05-14T16:01:13.059Z,100360.58
2023-05-14T16:03:38.977Z,100347.69
2023-05-14T16:06:05.842Z,100345.87
2023-05-14T16:08:32.200Z,100352.03
2023-05-14T16:10:57.183Z,100351.55
2023-05-14T16:13:23.565Z,100349.84
2023-05-14T16:15:51.248Z,100341.16
2023-05-14T16:17:02.626Z,100347.14
2023-05-14T16:19:28.008Z,100345.52
2023-05-14T16:21:54.294Z,100346.84
2023-05-14T16:23:02.950Z,100354.70
2023-05-14T16:25:30.928Z,100350.92
2023-05-14T16:26:42.658Z,100360.47
2023-05-14T16:29:06.338Z,100347.88
2023-05-14T16:31:31.903Z,100352.82
2023-05-14T16:33:58.240Z,100349.02
2023-05-14T16:35:09.569Z,100358.41
2023-05-14T16:37:35.164Z,100347.00
2023-05-14T16:40:00.104Z,100353.70
2023-05-14T16:42:48.568Z,100348.03
2023-05-14T16:45:13.421Z,100346.63
2023-05-14T16:47:38.616Z,100352.03
2023-05-14T16:50:05.371Z,100349.19
2023-05-14T16:52:31.001Z,100342.97
2023-05-14T16:54:54.458Z,100351.49
2023-05-14T16:58:29.265Z,100352.53
2023-05-14T16:59:38.826Z,100351.94
2023-05-14T17:02:04.687Z,100348.56
2023-05-14T17:04:28.976Z,100352.82
2023-05-14T17:05:38.765Z,100356.69
2023-05-14T17:08:05.297Z,100344.88
2023-05-14T17:09:16.478Z,100348.59
2023-05-14T17:11:42.952Z,100352.86
2023-05-14T17:12:52.082Z,100358.63
2023-05-14T17:15:23.961Z,100356.83
2023-05-14T17:17:48.710Z,100351.53
2023-05-14T17:20:14.161Z,100352.84
2023-05-14T17:21:24.475Z,100354.52
2023-05-14T17:23:49.456Z,100356.99
2023-05-14T17:26:12.922Z,100365.67
2023-05-14T17:28:37.540Z,100358.20
2023-05-14T17:31:23.112Z,100357.71
2023-05-14T17:33:49.208Z,100361.98
2023-05-14T17:36:34.760Z,100369.59
2023-05-14T17:37:43.651Z,100369.19
2023-05-14T17:40:09.105Z,100375.75
2023-05-14T17:41:18.740Z,100373.45
2023-05-14T17:42:27.445Z,100372.77
2023-05-14T17:44:50.999Z,100368.25
2023-05-14T17:47:15.726Z,100370.71
2023-05-14T17:49:39.961Z,100371.92
2023-05-14T17:52:05.177Z,100369.53
2023-05-14T17:53:16.423Z,100369.27
2023-05-14T17:55:42.225Z,100377.13
2023-05-14T17:56:51.310Z,100390.09
2023-05-14T17:59:15.769Z,100383.22
2023-05-14T18:01:41.328Z,100378.95
2023-05-14T18:04:06.450Z,100381.37
2023-05-14T18:06:32.193Z,100379.69
2023-05-14T18:41:27.738Z,100376.72
2023-05-14T18:43:51.556Z,100381.17
2023-05-14T18:46:15.867Z,100373.47
2023-05-14T18:48:44.349Z,100376.20
2023-05-14T18:51:17.243Z,100381.53
2023-05-14T18:53:44.775Z,100380.66
2023-05-14T18:56:11.643Z,100377.45
2023-05-14T18:58:37.260Z,100380.52
2023-05-14T18:59:46.892Z,100376.28
2023-05-14T19:02:13.213Z,100372.30
2023-05-14T19:03:23.599Z,100376.61
2023-05-14T19:05:52.465Z,100373.55
2023-05-14T19:08:16.436Z,100370.12
2023-05-14T19:09:26.973Z,100379.56
2023-05-14T19:11:51.067Z,100373.70
2023-05-14T19:14:15.217Z,100374.57
2023-05-14T19:16:41.005Z,100373.22
2023-05-14T19:19:05.030Z,100370.84
2023-05-14T19:21:30.178Z,100374.60
2023-05-14T19:23:53.792Z,100371.17
2023-05-14T19:25:03.234Z,100379.95
2023-05-14T19:27:29.967Z,100369.82
2023-05-14T19:28:39.060Z,100380.31
2023-05-14T19:31:05.414Z,100366.61
2023-05-14T19:32:15.162Z,100377.24
2023-05-14T19:33:26.307Z,100371.11
2023-05-14T19:35:52.959Z,100375.02
2023-05-14T19:37:02.912Z,100373.69
2023-05-14T19:39:28.386Z,100372.80
2023-05-14T19:42:00.841Z,100377.09
2023-05-14T19:44:26.326Z,100370.95
2023-05-14T19:46:53.892Z,100375.42
2023-05-14T19:48:02.910Z,100378.86
2023-05-14T19:50:27.625Z,100374.91
2023-05-14T19:51:37.393Z,100374.44
2023-05-14T19:54:01.530Z,100377.00
2023-05-14T19:56:27.132Z,100377.32
2023-05-14T19:58:53.367Z,100373.58
2023-05-14T20:01:18.829Z,100371.38
2023-05-14T20:03:45.832Z,100368.27
2023-05-14T20:04:56.613Z,100381.62
2023-05-14T20:07:22.053Z,100374.61
2023-05-14T20:08:31.112Z,100378.89
2023-05-14T20:09:40.066Z,100380.25
2023-05-14T20:12:04.464Z,100381.09
2023-05-14T20:14:28.900Z,100378.54
2023-05-14T20:16:53.699Z,100381.78
2023-05-14T20:19:20.449Z,100377.84
2023-05-14T20:21:45.104Z,100375.78
2023-05-14T20:22:54.164Z,100377.83
2023-05-14T20:24:03.290Z,100376.78
2023-05-14T20:26:27.121Z,100373.23
2023-05-14T20:28:53.254Z,100366.23
2023-05-14T20:31:20.993Z,100366.41
2023-05-14T20:33:44.889Z,100365.70
2023-05-14T20:34:55.886Z,100364.49
2023-05-14T20:37:21.088Z,100368.77
2023-05-14T20:39:46.861Z,100364.52
2023-05-14T20:42:12.587Z,100360.38
2023-05-14T20:44:36.557Z,100362.21
2023-05-14T20:47:00.607Z,100361.00
2023-05-14T20:49:26.813Z,100362.70
2023-05-14T20:51:51.352Z,100356.38
2023-05-14T20:54:16.870Z,100354.99
2023-05-14T20:56:41.301Z,100356.68
2023-05-14T20:57:50.599Z,100359.01
2023-05-14T20:58:59.715Z,100355.57
2023-05-14T21:00:10.504Z,100362.37
2023-05-14T21:02:36.739Z,100363.28
2023-05-14T21:05:00.748Z,100352.20
2023-05-14T21:08:39.870Z,100349.77
2023-05-14T21:11:06.530Z,100348.56
2023-05-14T21:13:31.036Z,100342.73
2023-05-14T21:15:55.439Z,100344.75
2023-05-14T21:18:20.320Z,100341.98
2023-05-14T21:20:51.249Z,100346.34
2023-05-14T21:22:00.796Z,100341.34
2023-05-14T21:24:24.826Z,100337.33
2023-05-14T21:26:53.445Z,100338.16
2023-05-14T21:29:17.638Z,100328.59
2023-05-14T21:30:26.740Z,100336.90
2023-05-14T21:32:50.300Z,100338.50
2023-05-14T21:33:59.534Z,100341.34
2023-05-14T21:36:25.239Z,100339.20
2023-05-14T21:37:35.073Z,100338.62
2023-05-14T21:40:00.030Z,100342.23
2023-05-14T21:42:23.735Z,100346.00
2023-05-14T21:44:48.876Z,100337.45
2023-05-14T21:47:12.738Z,100344.52
2023-05-14T21:49:38.193Z,100345.52
2023-05-14T21:52:03.206Z,100336.11
2023-05-14T21:54:27.908Z,100340.86
2023-05-14T21:56:53.932Z,100341.34
2023-05-14T21:58:03.430Z,100340.05
2023-05-14T22:00:28.791Z,100332.95
2023-05-14T22:02:00.771Z,100333.05
2023-05-14T22:04:06.585Z,100329.77
2023-05-14T22:05:15.774Z,100332.43
2023-05-14T22:06:25.736Z,100328.37
2023-05-14T22:08:50.728Z,100335.45
2023-05-14T22:11:15.735Z,100333.11
2023-05-14T22:13:40.618Z,100330.39
2023-05-14T22:14:49.643Z,100330.33
2023-05-14T22:17:14.422Z,100327.33
2023-05-14T22:19:39.799Z,100326.32
2023-05-14T22:22:05.475Z,100326.16
2023-05-14T22:23:14.652Z,100329.16
2023-05-14T22:25:39.429Z,100321.71
2023-05-14T22:28:03.671Z,100324.94
2023-05-14T22:30:28.717Z,100318.88
2023-05-14T22:32:53.779Z,100326.43
2023-05-14T22:35:20.253Z,100330.03
2023-05-14T22:37:45.656Z,100325.84
2023-05-14T22:40:13.207Z,100325.05
2023-05-14T22:41:23.080Z,100334.63
2023-05-14T22:43:48.742Z,100330.42
2023-05-14T22:44:57.124Z,100335.70
2023-05-14T22:47:22.097Z,100329.42
2023-05-14T22:48:30.663Z,100333.52
2023-05-14T22:51:00.425Z,100331.65
2023-05-14T22:53:26.537Z,100331.56
2023-05-14T22:55:52.030Z,100326.91
2023-05-14T22:57:01.352Z,100333.72
2023-05-14T22:58:11.842Z,100329.73
2023-05-14T23:00:37.637Z,100327.55
2023-05-14T23:40:22.667Z,100324.46
2023-05-14T23:42:40.985Z,100333.53
2023-05-14T23:45:06.693Z,100327.48
2023-05-14T23:46:17.026Z,100327.82
2023-05-14T23:48:43.920Z,100322.08
2023-05-14T23:51:10.003Z,100322.39
2023-05-14T23:53:34.643Z,100326.52
2023-05-14T23:55:59.298Z,100319.67
2023-05-14T23:58:23.301Z,100320.39
